Time;durP1;ratioP1;P1;durP2;ratioP2;P2;SDS_P1;SDS_P2;PMS_P1;PMS_P2;Temp;Humidity;BMP_temperature;BMP_pressure;BME280_temperature;BME280_humidity;BME280_pressure;Samples;Min_cycle;Max_cycle;Signal;HPM_P1;HPM_P2
2022/01/05 00:00:19;;;;;;;15.38;2.70;;;;;;;;;;4975655;28;95164;-69
2022/01/05 00:02:45;;;;;;;9.60;2.65;;;;;;;;;;4984806;28;93467;-69
2022/01/05 00:05:12;;;;;;;9.43;2.08;;;;;;;;;;4980080;28;92729;-69
2022/01/05 00:07:39;;;;;;;6.43;2.40;;;;;;;;;;4981312;28;92547;-69
2022/01/05 00:10:05;;;;;;;13.48;2.33;;;;;;;;;;4977728;28;94123;-69
2022/01/05 00:12:32;;;;;;;9.75;2.22;;;;;;;;;;4972236;28;96273;-69
2022/01/05 00:14:58;;;;;;;6.63;2.10;;;;;;;;;;4977689;28;92435;-69
2022/01/05 00:17:25;;;;;;;7.15;1.98;;;;;;;;;;4981163;28;94191;-69
2022/01/05 00:19:51;;;;;;;5.22;1.88;;;;;;;;;;4981239;28;92467;-69
2022/01/05 00:22:17;;;;;;;6.75;1.95;;;;;;;;;;4978967;28;94114;-69
2022/01/05 00:24:44;;;;;;;8.27;1.85;;;;;;;;;;4981448;28;93704;-68
2022/01/05 00:27:10;;;;;;;14.40;2.55;;;;;;;;;;4977441;28;93623;-70
2022/01/05 00:29:36;;;;;;;6.30;2.63;;;;;;;;;;4974314;28;91758;-69
2022/01/05 00:32:04;;;;;;;3.25;1.80;;;;;;;;;;4976359;28;94049;-69
2022/01/05 00:34:30;;;;;;;13.85;2.75;;;;;;;;;;4975841;28;92621;-69
2022/01/05 00:36:56;;;;;;;9.15;2.00;;;;;;;;;;4980375;28;94853;-69
2022/01/05 00:39:23;;;;;;;9.00;3.03;;;;;;;;;;4977011;28;92392;-69
2022/01/05 00:41:49;;;;;;;12.15;2.13;;;;;;;;;;4984502;28;94372;-69
2022/01/05 00:44:16;;;;;;;6.53;2.35;;;;;;;;;;4982963;28;93421;-69
2022/01/05 00:46:42;;;;;;;6.60;2.65;;;;;;;;;;4975815;28;93003;-69
2022/01/05 00:49:09;;;;;;;10.40;2.28;;;;;;;;;;4973597;28;93820;-68
2022/01/05 00:51:35;;;;;;;17.70;3.25;;;;;;;;;;4981632;28;94573;-69
2022/01/05 00:54:01;;;;;;;13.55;2.78;;;;;;;;;;4976587;28;91845;-68
2022/01/05 00:56:27;;;;;;;8.38;2.47;;;;;;;;;;4980910;28;95215;-69
2022/01/05 00:58:54;;;;;;;11.48;2.03;;;;;;;;;;4982436;28;94367;-69
2022/01/05 01:01:20;;;;;;;10.55;2.45;;;;;;;;;;4978865;28;95212;-69
2022/01/05 01:03:47;;;;;;;7.78;2.25;;;;;;;;;;4975204;28;94530;-69
2022/01/05 01:06:13;;;;;;;9.32;2.80;;;;;;;;;;4978425;28;95014;-69
2022/01/05 01:08:40;;;;;;;10.00;2.78;;;;;;;;;;4982704;28;93951;-69
2022/01/05 01:11:06;;;;;;;9.63;2.45;;;;;;;;;;4981911;28;93303;-69
2022/01/05 01:13:33;;;;;;;8.02;2.15;;;;;;;;;;4986299;28;93146;-69
2022/01/05 01:15:59;;;;;;;9.57;2.28;;;;;;;;;;4976849;28;94010;-69
2022/01/05 01:18:26;;;;;;;11.98;2.65;;;;;;;;;;4989456;28;92521;-70
2022/01/05 01:20:52;;;;;;;7.65;1.92;;;;;;;;;;4977618;28;94484;-69
2022/01/05 01:23:21;;;;;;;8.55;3.05;;;;;;;;;;4979852;28;94640;-69
2022/01/05 01:25:48;;;;;;;8.15;3.00;;;;;;;;;;4977915;28;94924;-69
2022/01/05 01:28:15;;;;;;;8.32;2.50;;;;;;;;;;4977958;28;96950;-69
2022/01/05 01:30:41;;;;;;;10.35;3.42;;;;;;;;;;4984620;28;93782;-69
2022/01/05 01:33:08;;;;;;;14.13;2.85;;;;;;;;;;4980708;28;92482;-69
2022/01/05 01:35:34;;;;;;;6.38;2.30;;;;;;;;;;4972560;28;93946;-69
2022/01/05 01:38:00;;;;;;;7.25;2.47;;;;;;;;;;4974272;28;94238;-70
2022/01/05 01:40:27;;;;;;;12.43;3.40;;;;;;;;;;4980586;28;92497;-68
2022/01/05 01:42:53;;;;;;;11.27;2.67;;;;;;;;;;4974340;28;93676;-68
2022/01/05 01:45:20;;;;;;;17.52;3.15;;;;;;;;;;4975955;28;92844;-69
2022/01/05 01:47:46;;;;;;;7.70;2.20;;;;;;;;;;4981210;28;93508;-68
2022/01/05 01:50:13;;;;;;;6.38;1.77;;;;;;;;;;4985250;28;96764;-68
2022/01/05 01:52:40;;;;;;;13.32;2.95;;;;;;;;;;4980385;28;92498;-69
2022/01/05 01:55:06;;;;;;;14.48;2.58;;;;;;;;;;4983231;28;94226;-69
2022/01/05 01:57:34;;;;;;;8.13;3.17;;;;;;;;;;4981838;28;93158;-69
2022/01/05 02:00:00;;;;;;;13.02;2.40;;;;;;;;;;4975703;28;92458;-70
2022/01/05 02:02:37;;;;;;;16.35;3.05;;;;;;;;;;4988889;28;92593;-69
2022/01/05 02:05:05;;;;;;;15.85;2.97;;;;;;;;;;4973715;28;93096;-69
2022/01/05 02:07:31;;;;;;;8.45;3.55;;;;;;;;;;4977310;28;93880;-69
2022/01/05 02:09:58;;;;;;;9.68;2.80;;;;;;;;;;4979823;28;92407;-69
2022/01/05 02:12:26;;;;;;;17.05;3.85;;;;;;;;;;4983284;28;92741;-69
2022/01/05 02:14:56;;;;;;;20.40;3.28;;;;;;;;;;4981602;28;94858;-68
2022/01/05 02:17:30;;;;;;;7.70;2.63;;;;;;;;;;4985476;28;94694;-70
2022/01/05 02:19:57;;;;;;;6.82;2.15;;;;;;;;;;4985470;28;92575;-70
2022/01/05 02:22:23;;;;;;;13.70;2.95;;;;;;;;;;4986418;28;94319;-69
2022/01/05 02:24:50;;;;;;;11.27;2.65;;;;;;;;;;4983689;28;94293;-69
2022/01/05 02:27:16;;;;;;;12.30;2.83;;;;;;;;;;4981565;28;93552;-69
2022/01/05 02:29:44;;;;;;;16.02;3.22;;;;;;;;;;4982091;28;92499;-69
2022/01/05 02:32:10;;;;;;;15.57;3.60;;;;;;;;;;4987173;28;91839;-69
2022/01/05 02:34:37;;;;;;;14.88;2.95;;;;;;;;;;4988105;28;93631;-69
2022/01/05 02:37:03;;;;;;;17.00;3.22;;;;;;;;;;4982761;28;94173;-69
2022/01/05 02:39:30;;;;;;;18.92;3.85;;;;;;;;;;4978098;28;94910;-69
2022/01/05 02:41:56;;;;;;;21.23;3.78;;;;;;;;;;4979739;28;96498;-69
2022/01/05 02:44:23;;;;;;;16.73;3.22;;;;;;;;;;4992647;28;94284;-69
2022/01/05 02:46:49;;;;;;;16.85;3.47;;;;;;;;;;4987375;28;92726;-69
2022/01/05 02:49:15;;;;;;;9.60;3.55;;;;;;;;;;4990835;28;94250;-69
2022/01/05 02:51:42;;;;;;;9.60;2.65;;;;;;;;;;4990139;28;92462;-68
2022/01/05 02:54:08;;;;;;;15.50;2.80;;;;;;;;;;4979244;28;94203;-68
2022/01/05 02:56:34;;;;;;;20.20;2.90;;;;;;;;;;4982214;28;92592;-69
2022/01/05 02:59:02;;;;;;;15.50;3.92;;;;;;;;;;4989049;28;92458;-69
2022/01/05 03:01:29;;;;;;;9.90;2.72;;;;;;;;;;4985520;28;94572;-69
2022/01/05 03:03:56;;;;;;;9.35;2.97;;;;;;;;;;4983159;28;95973;-69
2022/01/05 03:06:22;;;;;;;19.13;3.47;;;;;;;;;;4985893;28;92515;-69
2022/01/05 03:08:49;;;;;;;17.42;2.90;;;;;;;;;;4983398;28;94274;-69
2022/01/05 03:11:15;;;;;;;14.45;3.88;;;;;;;;;;4982849;28;92478;-69
2022/01/05 03:13:43;;;;;;;11.32;3.10;;;;;;;;;;4986425;28;94169;-69
2022/01/05 03:16:09;;;;;;;11.20;3.17;;;;;;;;;;4979202;28;94842;-69
2022/01/05 03:18:36;;;;;;;15.27;3.22;;;;;;;;;;4976523;28;92546;-69
2022/01/05 03:21:02;;;;;;;14.70;3.60;;;;;;;;;;4984663;28;94120;-69
2022/01/05 03:23:28;;;;;;;22.65;3.30;;;;;;;;;;4983957;28;93080;-69
2022/01/05 03:25:56;;;;;;;13.23;2.67;;;;;;;;;;4976813;28;92521;-69
2022/01/05 03:28:22;;;;;;;15.32;3.50;;;;;;;;;;4976779;28;94884;-70
2022/01/05 03:30:48;;;;;;;26.50;3.72;;;;;;;;;;4980562;28;92551;-69
2022/01/05 03:33:20;;;;;;;15.60;3.28;;;;;;;;;;4975420;28;93974;-69
2022/01/05 03:35:47;;;;;;;11.43;2.05;;;;;;;;;;4977298;28;94065;-70
2022/01/05 03:38:15;;;;;;;14.60;3.90;;;;;;;;;;4985242;28;92489;-69
2022/01/05 03:40:42;;;;;;;14.07;3.03;;;;;;;;;;4982794;28;92939;-69
2022/01/05 03:43:08;;;;;;;12.13;3.28;;;;;;;;;;4984304;28;93335;-69
2022/01/05 03:45:36;;;;;;;14.07;3.15;;;;;;;;;;4984740;28;91934;-69
2022/01/05 03:48:03;;;;;;;18.10;4.25;;;;;;;;;;4984500;28;93275;-69
2022/01/05 03:50:30;;;;;;;11.25;3.28;;;;;;;;;;4986389;28;94261;-69
2022/01/05 03:52:56;;;;;;;16.58;4.05;;;;;;;;;;4976100;28;94835;-69
2022/01/05 03:55:22;;;;;;;13.73;3.08;;;;;;;;;;4986857;28;94538;-69
2022/01/05 03:57:49;;;;;;;11.57;3.00;;;;;;;;;;4976608;28;93266;-69
2022/01/05 04:00:15;;;;;;;15.23;4.22;;;;;;;;;;4978725;28;93881;-69
2022/01/05 04:02:42;;;;;;;10.90;2.90;;;;;;;;;;4982967;28;94068;-69
2022/01/05 04:05:09;;;;;;;19.02;3.72;;;;;;;;;;4978360;28;92797;-69
2022/01/05 04:07:35;;;;;;;14.20;3.50;;;;;;;;;;4982856;28;93270;-69
2022/01/05 04:10:02;;;;;;;8.88;3.05;;;;;;;;;;4978487;28;93439;-67
2022/01/05 04:12:29;;;;;;;11.07;4.10;;;;;;;;;;4987448;28;93283;-69
2022/01/05 04:14:55;;;;;;;17.80;3.25;;;;;;;;;;4977769;28;94192;-69
2022/01/05 04:17:22;;;;;;;18.80;3.65;;;;;;;;;;4981223;28;96215;-69
2022/01/05 04:19:48;;;;;;;14.25;4.15;;;;;;;;;;4982301;28;96343;-69
2022/01/05 04:22:15;;;;;;;16.65;3.70;;;;;;;;;;4983701;28;94069;-69
2022/01/05 04:24:41;;;;;;;14.07;3.05;;;;;;;;;;4984341;28;92486;-69
2022/01/05 04:27:07;;;;;;;10.30;3.63;;;;;;;;;;4986316;28;94746;-69
2022/01/05 04:29:34;;;;;;;12.75;3.10;;;;;;;;;;4986354;28;94010;-69
2022/01/05 04:32:06;;;;;;;20.03;3.83;;;;;;;;;;4983466;28;92924;-69
2022/01/05 04:34:32;;;;;;;8.43;2.35;;;;;;;;;;4981951;28;93100;-69
2022/01/05 04:37:19;;;;;;;19.20;3.72;;;;;;;;;;4982227;28;92934;-69
2022/01/05 04:39:45;;;;;;;17.30;3.00;;;;;;;;;;4976063;28;93091;-69
2022/01/05 04:42:12;;;;;;;12.82;3.20;;;;;;;;;;4978985;28;96716;-69
2022/01/05 04:44:38;;;;;;;12.60;3.33;;;;;;;;;;4974230;28;92454;-69
2022/01/05 04:47:05;;;;;;;13.93;3.33;;;;;;;;;;4985522;28;92602;-69
2022/01/05 04:49:31;;;;;;;10.75;3.33;;;;;;;;;;4978348;28;93441;-69
2022/01/05 04:51:57;;;;;;;20.98;3.75;;;;;;;;;;4978143;28;92373;-69
2022/01/05 04:54:24;;;;;;;11.55;3.38;;;;;;;;;;4980496;28;94584;-69
2022/01/05 04:56:50;;;;;;;9.77;2.60;;;;;;;;;;4978355;28;94659;-69
2022/01/05 04:59:17;;;;;;;14.85;3.25;;;;;;;;;;4985250;28;92807;-69
2022/01/05 05:01:43;;;;;;;23.33;3.70;;;;;;;;;;4981544;28;94434;-70
2022/01/05 05:04:10;;;;;;;18.38;3.83;;;;;;;;;;4980051;28;92478;-68
2022/01/05 05:06:36;;;;;;;15.48;3.17;;;;;;;;;;4980665;28;94853;-68
2022/01/05 05:09:03;;;;;;;19.77;3.83;;;;;;;;;;4984282;28;94237;-68
2022/01/05 05:11:29;;;;;;;22.70;3.85;;;;;;;;;;4981034;28;93158;-68
2022/01/05 05:13:55;;;;;;;16.08;4.07;;;;;;;;;;4987040;28;94256;-68
2022/01/05 05:16:22;;;;;;;15.23;3.55;;;;;;;;;;4980226;28;94629;-68
2022/01/05 05:18:48;;;;;;;16.55;3.75;;;;;;;;;;4984894;28;92557;-68
2022/01/05 05:21:14;;;;;;;11.02;2.53;;;;;;;;;;4981335;28;94201;-68
2022/01/05 05:23:41;;;;;;;21.50;5.43;;;;;;;;;;4986003;28;91935;-68
2022/01/05 05:26:07;;;;;;;14.88;3.92;;;;;;;;;;4981483;28;92577;-68
2022/01/05 05:28:33;;;;;;;21.90;4.05;;;;;;;;;;4985076;28;94368;-68
2022/01/05 05:31:00;;;;;;;17.08;3.75;;;;;;;;;;4972163;28;95418;-68
2022/01/05 05:33:31;;;;;;;20.77;3.85;;;;;;;;;;4977816;28;96621;-69
2022/01/05 05:35:58;;;;;;;20.70;3.22;;;;;;;;;;4981282;28;93778;-69
2022/01/05 05:38:24;;;;;;;14.40;3.63;;;;;;;;;;4982300;28;93043;-69
2022/01/05 05:40:50;;;;;;;23.40;3.28;;;;;;;;;;4973321;28;94204;-69
2022/01/05 05:43:17;;;;;;;9.75;2.42;;;;;;;;;;4980777;28;93340;-69
2022/01/05 05:45:43;;;;;;;12.52;3.58;;;;;;;;;;4979976;28;94357;-69
2022/01/05 05:48:10;;;;;;;13.98;3.80;;;;;;;;;;4974347;28;91955;-69
2022/01/05 05:50:36;;;;;;;23.75;4.20;;;;;;;;;;4986112;28;93679;-69
2022/01/05 05:53:02;;;;;;;15.95;2.80;;;;;;;;;;4985338;28;94082;-68
2022/01/05 05:55:29;;;;;;;17.92;3.88;;;;;;;;;;4977868;28;95582;-68
2022/01/05 05:57:55;;;;;;;19.88;3.33;;;;;;;;;;4980002;28;92571;-68
2022/01/05 06:00:22;;;;;;;15.93;3.85;;;;;;;;;;4982943;28;94272;-68
2022/01/05 06:02:48;;;;;;;18.40;4.50;;;;;;;;;;4979877;28;92615;-68
2022/01/05 06:05:15;;;;;;;20.77;4.63;;;;;;;;;;4978990;28;94387;-68
2022/01/05 06:07:41;;;;;;;26.60;4.40;;;;;;;;;;4989095;28;93710;-69
2022/01/05 06:10:07;;;;;;;22.45;3.72;;;;;;;;;;4982592;28;92440;-68
2022/01/05 06:12:34;;;;;;;35.58;4.63;;;;;;;;;;4976184;28;94223;-68
2022/01/05 06:15:00;;;;;;;11.98;3.38;;;;;;;;;;4985527;28;94359;-68
2022/01/05 06:17:26;;;;;;;20.15;4.03;;;;;;;;;;4977952;28;94753;-67
2022/01/05 06:19:53;;;;;;;20.08;4.10;;;;;;;;;;4970744;28;94843;-68
2022/01/05 06:22:20;;;;;;;21.02;4.65;;;;;;;;;;4983845;28;95088;-68
2022/01/05 06:24:47;;;;;;;22.00;4.18;;;;;;;;;;4980538;28;93341;-68
2022/01/05 06:27:14;;;;;;;9.82;3.42;;;;;;;;;;4978785;28;93259;-68
2022/01/05 06:29:40;;;;;;;12.43;2.28;;;;;;;;;;4980361;28;92560;-68
2022/01/05 06:32:07;;;;;;;11.52;2.47;;;;;;;;;;4978804;28;94025;-68
2022/01/05 06:34:33;;;;;;;22.90;4.40;;;;;;;;;;4982775;28;94115;-68
2022/01/05 06:37:00;;;;;;;26.23;5.80;;;;;;;;;;4979828;28;91822;-68
2022/01/05 06:39:26;;;;;;;23.30;3.45;;;;;;;;;;4973977;28;93026;-68
2022/01/05 06:41:53;;;;;;;15.68;3.63;;;;;;;;;;4975768;28;94230;-68
2022/01/05 06:44:20;;;;;;;27.77;3.72;;;;;;;;;;4981501;28;95476;-68
2022/01/05 06:46:47;;;;;;;21.38;3.90;;;;;;;;;;4977534;28;93520;-68
2022/01/05 06:49:13;;;;;;;26.73;5.07;;;;;;;;;;4980027;28;93104;-68
2022/01/05 06:51:39;;;;;;;21.38;4.40;;;;;;;;;;4982320;28;93172;-68
2022/01/05 06:54:06;;;;;;;22.70;3.78;;;;;;;;;;4981375;28;94373;-68
2022/01/05 06:56:33;;;;;;;17.60;4.25;;;;;;;;;;4977146;28;92721;-68
2022/01/05 06:58:59;;;;;;;24.98;4.07;;;;;;;;;;4983433;28;93950;-68
2022/01/05 07:01:26;;;;;;;22.42;4.32;;;;;;;;;;4981701;28;94086;-68
2022/01/05 07:03:52;;;;;;;28.25;4.13;;;;;;;;;;4977956;28;92523;-68
2022/01/05 07:06:18;;;;;;;25.08;4.18;;;;;;;;;;4981293;28;94079;-68
2022/01/05 07:08:45;;;;;;;17.17;4.40;;;;;;;;;;4980154;28;95447;-68
2022/01/05 07:11:11;;;;;;;20.42;4.38;;;;;;;;;;4983641;28;96265;-68
2022/01/05 07:13:38;;;;;;;19.00;4.10;;;;;;;;;;4985452;28;94430;-68
2022/01/05 07:16:04;;;;;;;18.05;3.50;;;;;;;;;;4982431;28;93439;-68
2022/01/05 07:18:31;;;;;;;25.27;3.95;;;;;;;;;;4982487;28;94131;-69
2022/01/05 07:20:57;;;;;;;15.77;4.15;;;;;;;;;;4977734;28;94722;-68
2022/01/05 07:23:23;;;;;;;34.67;5.40;;;;;;;;;;4983691;28;93121;-68
2022/01/05 07:25:50;;;;;;;29.17;4.72;;;;;;;;;;4988024;28;93221;-68
2022/01/05 07:28:16;;;;;;;18.92;4.00;;;;;;;;;;4982590;28;92866;-68
2022/01/05 07:30:42;;;;;;;15.43;2.78;;;;;;;;;;4975488;28;93084;-69
2022/01/05 07:33:09;;;;;;;25.27;3.70;;;;;;;;;;4986614;28;95549;-70
2022/01/05 07:35:35;;;;;;;24.58;4.60;;;;;;;;;;4982091;28;92520;-69
2022/01/05 07:38:02;;;;;;;23.10;4.10;;;;;;;;;;4982457;28;93931;-69
2022/01/05 07:40:29;;;;;;;27.50;5.32;;;;;;;;;;4982465;28;93703;-69
2022/01/05 07:42:55;;;;;;;30.20;4.90;;;;;;;;;;4992471;28;92513;-69
2022/01/05 07:45:22;;;;;;;31.13;4.55;;;;;;;;;;4985313;28;94111;-69
2022/01/05 07:47:49;;;;;;;19.13;3.95;;;;;;;;;;4985474;28;94035;-69
2022/01/05 07:50:15;;;;;;;19.38;3.10;;;;;;;;;;4981800;28;92907;-70
2022/01/05 07:52:42;;;;;;;11.05;3.25;;;;;;;;;;4982257;28;94534;-70
2022/01/05 07:55:09;;;;;;;14.95;3.30;;;;;;;;;;4982899;28;92844;-70
2022/01/05 07:57:35;;;;;;;13.57;2.67;;;;;;;;;;4981120;28;96107;-69
2022/01/05 08:00:03;;;;;;;17.38;4.22;;;;;;;;;;4982475;28;93591;-70
2022/01/05 08:02:29;;;;;;;19.33;3.50;;;;;;;;;;4987910;28;93027;-70
2022/01/05 08:04:56;;;;;;;21.63;4.55;;;;;;;;;;4976648;28;93801;-69
2022/01/05 08:07:22;;;;;;;19.63;3.70;;;;;;;;;;4980820;28;93910;-69
2022/01/05 08:09:49;;;;;;;16.23;3.58;;;;;;;;;;4984790;28;92799;-69
2022/01/05 08:12:15;;;;;;;20.92;4.50;;;;;;;;;;4980541;28;93503;-70
2022/01/05 08:14:41;;;;;;;26.33;5.70;;;;;;;;;;4989412;28;92411;-70
2022/01/05 08:17:08;;;;;;;17.45;4.53;;;;;;;;;;4979996;28;92653;-69
2022/01/05 08:19:34;;;;;;;21.73;3.95;;;;;;;;;;4977234;28;94286;-69
2022/01/05 08:22:00;;;;;;;27.63;5.63;;;;;;;;;;4982478;28;94948;-69
2022/01/05 08:24:27;;;;;;;21.67;3.40;;;;;;;;;;4994145;28;95493;-69
2022/01/05 08:26:53;;;;;;;15.35;3.88;;;;;;;;;;4992294;28;94097;-69
2022/01/05 08:29:19;;;;;;;10.65;3.42;;;;;;;;;;4976445;28;93253;-69
2022/01/05 08:31:46;;;;;;;18.65;4.10;;;;;;;;;;4980691;28;93023;-69
2022/01/05 08:34:12;;;;;;;20.05;2.55;;;;;;;;;;4981727;28;92567;-69
2022/01/05 08:36:39;;;;;;;8.02;2.38;;;;;;;;;;4974047;28;95107;-69
2022/01/05 08:39:05;;;;;;;18.23;3.53;;;;;;;;;;4975471;28;93514;-69
2022/01/05 08:41:31;;;;;;;19.00;3.63;;;;;;;;;;4988943;28;92636;-69
2022/01/05 08:43:58;;;;;;;15.63;3.47;;;;;;;;;;4973125;28;93141;-69
2022/01/05 08:46:24;;;;;;;27.90;4.72;;;;;;;;;;4970773;28;96069;-69
2022/01/05 08:48:51;;;;;;;19.75;3.78;;;;;;;;;;4980519;28;94139;-69
2022/01/05 08:51:17;;;;;;;15.10;3.65;;;;;;;;;;4978270;28;93963;-69
2022/01/05 08:53:44;;;;;;;23.15;3.78;;;;;;;;;;4977545;28;93412;-69
2022/01/05 08:56:10;;;;;;;15.27;3.58;;;;;;;;;;4979118;28;94469;-68
2022/01/05 08:58:36;;;;;;;17.77;3.63;;;;;;;;;;4974345;28;93723;-69
2022/01/05 09:01:03;;;;;;;27.70;5.00;;;;;;;;;;4981196;28;92525;-68
2022/01/05 09:03:29;;;;;;;15.07;3.28;;;;;;;;;;4973552;28;93978;-68
2022/01/05 09:05:55;;;;;;;29.65;3.85;;;;;;;;;;4976278;28;94378;-68
2022/01/05 09:08:22;;;;;;;20.08;4.47;;;;;;;;;;4972571;28;92450;-68
2022/01/05 09:10:48;;;;;;;16.35;4.00;;;;;;;;;;4979600;28;94860;-68
2022/01/05 09:13:16;;;;;;;21.50;3.22;;;;;;;;;;4978563;28;93805;-68
2022/01/05 09:15:42;;;;;;;45.10;5.03;;;;;;;;;;4981328;28;97816;-68
2022/01/05 09:18:09;;;;;;;18.55;3.65;;;;;;;;;;4973154;28;93350;-68
2022/01/05 09:20:36;;;;;;;24.92;4.43;;;;;;;;;;4975894;28;93270;-68
2022/01/05 09:23:03;;;;;;;25.25;5.65;;;;;;;;;;4988636;28;94040;-69
2022/01/05 09:25:29;;;;;;;22.95;4.32;;;;;;;;;;4989339;28;96774;-68
2022/01/05 09:27:56;;;;;;;27.92;5.40;;;;;;;;;;4983848;28;94184;-69
2022/01/05 09:30:23;;;;;;;31.23;4.40;;;;;;;;;;4987736;28;93980;-69
2022/01/05 09:32:49;;;;;;;19.80;4.15;;;;;;;;;;4981762;28;94278;-68
2022/01/05 09:35:19;;;;;;;15.82;3.40;;;;;;;;;;4976439;28;95164;-68
2022/01/05 09:37:55;;;;;;;20.80;4.10;;;;;;;;;;4993130;28;93943;-68
2022/01/05 09:43:07;;;;;;;27.77;5.88;;;;;;;;;;4975713;28;94129;-68
2022/01/05 09:45:35;;;;;;;26.05;4.32;;;;;;;;;;4980208;28;94238;-68
2022/01/05 09:48:10;;;;;;;30.25;5.10;;;;;;;;;;4984083;28;93860;-68
2022/01/05 09:50:36;;;;;;;;;;;;;;;;;;4976644;28;92891;-68
2022/01/05 09:53:04;;;;;;;34.08;5.32;;;;;;;;;;4978731;28;115911;-68
2022/01/05 09:55:31;;;;;;;27.15;4.65;;;;;;;;;;4983226;28;92840;-68
2022/01/05 09:57:57;;;;;;;29.75;5.18;;;;;;;;;;4979210;28;94077;-69
2022/01/05 10:00:24;;;;;;;27.98;5.13;;;;;;;;;;4990101;28;95318;-68
2022/01/05 10:02:50;;;;;;;24.77;6.15;;;;;;;;;;4973848;28;96439;-69
2022/01/05 10:05:17;;;;;;;27.52;4.43;;;;;;;;;;4976001;28;93826;-69
2022/01/05 10:07:44;;;;;;;33.67;4.88;;;;;;;;;;4972509;28;92471;-69
2022/01/05 10:10:10;;;;;;;29.95;4.88;;;;;;;;;;4975422;28;93053;-69
2022/01/05 10:12:37;;;;;;;29.73;4.35;;;;;;;;;;4985029;28;94621;-69
2022/01/05 10:15:09;;;;;;;41.08;7.07;;;;;;;;;;4978557;28;92944;-67
2022/01/05 10:17:37;;;;;;;27.83;4.55;;;;;;;;;;4975363;28;93910;-69
2022/01/05 10:20:06;;;;;;;23.45;4.75;;;;;;;;;;4975554;28;93335;-68
2022/01/05 10:22:36;;;;;;;35.00;5.55;;;;;;;;;;4976512;28;94114;-68
2022/01/05 10:25:07;;;;;;;36.88;5.32;;;;;;;;;;4980241;28;95844;-68
2022/01/05 10:27:34;;;;;;;46.22;5.20;;;;;;;;;;4985172;28;94043;-69
2022/01/05 10:30:01;;;;;;;35.22;5.32;;;;;;;;;;4987744;28;93303;-69
2022/01/05 10:32:33;;;;;;;28.45;5.07;;;;;;;;;;4974386;28;93596;-69
2022/01/05 10:34:59;;;;;;;19.50;4.67;;;;;;;;;;4975506;28;92644;-68
2022/01/05 10:37:26;;;;;;;26.40;6.13;;;;;;;;;;4974936;28;94094;-68
2022/01/05 10:40:08;;;;;;;17.25;3.78;;;;;;;;;;4987843;28;93321;-69
2022/01/05 10:42:35;;;;;;;29.90;5.05;;;;;;;;;;4991700;28;92315;-68
2022/01/05 10:45:03;;;;;;;27.33;4.35;;;;;;;;;;4994030;28;94245;-68
2022/01/05 10:47:29;;;;;;;36.38;5.40;;;;;;;;;;4994949;28;93529;-68
2022/01/05 10:49:55;;;;;;;56.45;5.80;;;;;;;;;;4985596;28;94994;-68
2022/01/05 10:52:25;;;;;;;38.17;5.80;;;;;;;;;;4985999;28;94619;-68
2022/01/05 10:54:53;;;;;;;50.72;6.28;;;;;;;;;;4980214;28;92569;-68
2022/01/05 10:57:20;;;;;;;19.77;3.88;;;;;;;;;;4980315;28;94442;-68
2022/01/05 10:59:47;;;;;;;22.17;5.55;;;;;;;;;;4982964;28;93401;-69
2022/01/05 11:02:19;;;;;;;29.88;5.63;;;;;;;;;;4983270;28;92752;-68
2022/01/05 11:04:46;;;;;;;26.00;4.35;;;;;;;;;;4985875;28;93329;-69
2022/01/05 11:07:18;;;;;;;28.15;5.03;;;;;;;;;;4984583;28;91861;-69
2022/01/05 11:09:55;;;;;;;33.20;6.05;;;;;;;;;;4981225;28;92510;-70
2022/01/05 11:12:29;;;;;;;36.05;4.57;;;;;;;;;;4977004;28;92489;-68
2022/01/05 11:15:15;;;;;;;33.13;4.95;;;;;;;;;;4978833;28;95030;-69
2022/01/05 11:17:44;;;;;;;23.80;3.55;;;;;;;;;;4987070;28;96382;-68
2022/01/05 11:20:10;;;;;;;42.08;6.05;;;;;;;;;;4977635;28;94224;-68
2022/01/05 11:22:36;;;;;;;25.25;4.30;;;;;;;;;;4984215;28;93166;-68
2022/01/05 11:25:08;;;;;;;17.27;3.15;;;;;;;;;;4981538;28;93227;-69
2022/01/05 11:27:34;;;;;;;28.92;4.32;;;;;;;;;;4988332;28;93766;-69
2022/01/05 11:30:00;;;;;;;22.20;4.70;;;;;;;;;;4991113;28;93978;-70
2022/01/05 11:32:30;;;;;;;23.63;5.32;;;;;;;;;;4983297;28;95099;-69
2022/01/05 11:34:57;;;;;;;14.18;3.40;;;;;;;;;;4981411;28;92801;-69
2022/01/05 11:37:23;;;;;;;22.80;4.53;;;;;;;;;;4982250;28;93428;-69
2022/01/05 11:39:51;;;;;;;28.40;5.47;;;;;;;;;;4973170;28;97295;-69
2022/01/05 11:42:19;;;;;;;36.80;4.85;;;;;;;;;;4972670;28;93736;-69
2022/01/05 11:44:47;;;;;;;27.52;4.53;;;;;;;;;;4985165;28;93934;-69
2022/01/05 11:47:23;;;;;;;32.97;5.63;;;;;;;;;;4988481;28;93355;-68
2022/01/05 11:49:50;;;;;;;27.52;3.83;;;;;;;;;;4986129;28;95438;-68
2022/01/05 11:52:16;;;;;;;32.55;4.47;;;;;;;;;;4988476;28;98493;-69
2022/01/05 11:55:00;;;;;;;20.65;4.03;;;;;;;;;;4976557;28;93107;-69
2022/01/05 11:57:26;;;;;;;25.52;5.50;;;;;;;;;;4990661;28;93211;-68
2022/01/05 12:00:13;;;;;;;14.07;3.28;;;;;;;;;;4975303;28;93640;-67
2022/01/05 12:02:40;;;;;;;31.60;4.90;;;;;;;;;;4986863;28;92918;-68
2022/01/05 12:05:07;;;;;;;39.90;5.28;;;;;;;;;;4980720;28;95075;-69
2022/01/05 12:07:35;;;;;;;28.77;5.13;;;;;;;;;;4978918;28;93586;-69
2022/01/05 12:10:11;;;;;;;32.63;3.95;;;;;;;;;;4980604;28;95057;-69
2022/01/05 12:12:37;;;;;;;32.65;4.85;;;;;;;;;;4981539;28;94328;-68
2022/01/05 12:15:04;;;;;;;30.92;5.72;;;;;;;;;;4979981;28;92608;-68
2022/01/05 12:17:32;;;;;;;31.95;5.85;;;;;;;;;;4993761;28;93312;-69
2022/01/05 12:19:58;;;;;;;37.97;5.38;;;;;;;;;;4984368;28;92569;-69
2022/01/05 12:22:25;;;;;;;32.58;6.32;;;;;;;;;;4980924;28;91851;-69
2022/01/05 12:25:03;;;;;;;19.38;4.05;;;;;;;;;;4988150;28;93404;-69
2022/01/05 12:27:49;;;;;;;33.40;7.15;;;;;;;;;;4984974;28;93842;-69
2022/01/05 12:30:18;;;;;;;34.28;5.35;;;;;;;;;;4971476;28;95452;-69
2022/01/05 12:32:49;;;;;;;26.92;5.10;;;;;;;;;;4981548;28;96519;-69
2022/01/05 12:35:15;;;;;;;17.25;3.78;;;;;;;;;;4981869;28;93890;-68
2022/01/05 12:37:43;;;;;;;24.70;4.38;;;;;;;;;;4973199;28;93353;-68
2022/01/05 12:40:22;;;;;;;27.65;4.78;;;;;;;;;;4973423;28;94522;-68
2022/01/05 12:43:09;;;;;;;25.83;4.85;;;;;;;;;;4973315;28;93829;-70
2022/01/05 12:45:54;;;;;;;31.38;5.60;;;;;;;;;;4972121;28;93639;-69
2022/01/05 12:48:32;;;;;;;30.55;6.05;;;;;;;;;;4974863;28;94451;-68
2022/01/05 12:51:11;;;;;;;28.25;6.22;;;;;;;;;;4986801;28;92480;-68
2022/01/05 12:53:48;;;;;;;25.45;4.22;;;;;;;;;;4987904;28;94326;-69
2022/01/05 12:56:21;;;;;;;25.48;5.15;;;;;;;;;;4980022;28;95981;-69
2022/01/05 12:58:48;;;;;;;;;;;;;;;;;;4976007;28;96361;-69
2022/01/05 13:01:15;;;;;;;27.90;4.25;;;;;;;;;;4973047;28;123835;-69
2022/01/05 13:03:41;;;;;;;24.40;4.25;;;;;;;;;;4978909;28;92457;-69
2022/01/05 13:06:25;;;;;;;21.92;4.05;;;;;;;;;;4983085;28;94004;-69
2022/01/05 13:08:59;;;;;;;27.92;4.40;;;;;;;;;;4983132;28;94956;-69
2022/01/05 13:11:45;;;;;;;24.63;4.47;;;;;;;;;;4973017;28;93796;-69
2022/01/05 13:14:14;;;;;;;20.35;3.47;;;;;;;;;;4980059;28;94049;-69
2022/01/05 13:16:42;;;;;;;21.75;3.83;;;;;;;;;;4973042;28;93132;-69
2022/01/05 13:19:14;;;;;;;22.67;3.95;;;;;;;;;;4981049;28;92704;-69
2022/01/05 13:21:44;;;;;;;29.67;4.68;;;;;;;;;;4971721;28;95908;-68
2022/01/05 13:24:10;;;;;;;19.02;4.25;;;;;;;;;;4985403;28;92843;-68
2022/01/05 13:26:36;;;;;;;35.63;5.25;;;;;;;;;;4988906;28;93193;-69
2022/01/05 13:29:19;;;;;;;23.23;4.80;;;;;;;;;;4981664;28;94739;-68
2022/01/05 13:31:54;;;;;;;29.73;4.30;;;;;;;;;;4973061;28;92893;-69
2022/01/05 13:34:37;;;;;;;21.20;4.03;;;;;;;;;;4975388;28;94197;-69
2022/01/05 13:37:04;;;;;;;22.20;4.05;;;;;;;;;;4984660;28;94254;-69
2022/01/05 13:39:35;;;;;;;17.98;3.50;;;;;;;;;;4978397;28;91600;-69
2022/01/05 13:42:01;;;;;;;30.67;5.05;;;;;;;;;;4983427;28;93450;-68
2022/01/05 13:44:27;;;;;;;16.98;3.38;;;;;;;;;;4986160;28;92581;-69
2022/01/05 13:46:54;;;;;;;20.27;3.63;;;;;;;;;;4978384;28;95574;-69
2022/01/05 13:49:22;;;;;;;21.55;4.25;;;;;;;;;;4986053;28;94554;-69
2022/01/05 13:52:20;;;;;;;27.85;4.90;;;;;;;;;;4988573;28;92444;-69
2022/01/05 13:54:47;;;;;;;25.13;4.05;;;;;;;;;;4956404;28;94123;-69
2022/01/05 13:57:26;;;;;;;20.77;4.30;;;;;;;;;;4986114;28;94344;-69
2022/01/05 14:00:07;;;;;;;20.30;3.50;;;;;;;;;;4973049;28;92516;-70
2022/01/05 14:02:34;;;;;;;21.67;5.15;;;;;;;;;;4989466;28;93128;-69
2022/01/05 14:05:01;;;;;;;25.17;4.47;;;;;;;;;;4974550;28;91747;-70
2022/01/05 14:07:28;;;;;;;26.77;4.45;;;;;;;;;;4985746;28;92728;-70
2022/01/05 14:10:04;;;;;;;24.17;3.78;;;;;;;;;;4977522;28;94391;-69
2022/01/05 14:12:32;;;;;;;24.48;4.30;;;;;;;;;;4986891;28;95664;-69
2022/01/05 14:14:59;;;;;;;10.20;2.72;;;;;;;;;;4985590;28;96300;-69
2022/01/05 14:17:28;;;;;;;21.00;5.55;;;;;;;;;;4984796;28;94303;-69
2022/01/05 14:20:13;;;;;;;14.65;3.25;;;;;;;;;;4986679;28;92738;-69
2022/01/05 14:22:40;;;;;;;21.15;4.43;;;;;;;;;;4975806;28;93408;-70
2022/01/05 14:25:07;;;;;;;11.13;2.97;;;;;;;;;;4978976;28;93378;-70
2022/01/05 14:27:37;;;;;;;20.83;3.45;;;;;;;;;;4983761;28;93089;-69
2022/01/05 14:30:10;;;;;;;23.15;4.35;;;;;;;;;;4975553;28;94004;-69
2022/01/05 14:32:37;;;;;;;21.50;3.42;;;;;;;;;;4983094;28;92759;-70
2022/01/05 14:35:14;;;;;;;18.02;3.72;;;;;;;;;;4975743;28;93952;-71
2022/01/05 14:37:57;;;;;;;12.63;3.70;;;;;;;;;;4973085;28;96460;-69
2022/01/05 14:40:23;;;;;;;;;;;;;;;;;;4983588;28;93354;-70